x

Susquehanna, Md (44057) Weather Station

5:40am - Mon 21st Apr 2014 All times are EDT. -4 hours from GMT.

  • Wind
    9mph
  • Air Temp 42°f
  • Sea Pressure 1023.7mb
  • Susquehanna, Md
  • Susquehanna, Md

More Historic Weather Station data

Upgrade to MSW Pro to gain access to the past 30 days of data for over 8000 Wavebouys and Weather Stations around the globe.

Join Pro

Comparision Forecast

View Surf forecast
   
Mon 04/21 5:40am 9
mph
1023.7mb - 42f
5:30am 9 11 mph 1023.7mb - 42f
5:20am 9
mph
1023.7mb - 42f
5:10am 7 9 mph 1023.6mb - 42f
5:00am 7 9 mph 1023.7mb 52f 42f
4:50am 7 9 mph 1023.8mb - 42f
4:40am 7 9 mph 1023.8mb - 42f
4:30am 7
mph
1023.8mb - 42f
4:20am 7
mph
1023.8mb - 42f
4:10am 7
mph
1023.8mb - 43f
4:00am 7
mph
1023.8mb 53f 43f
3:50am 4 7 mph 1023.9mb - 43f
3:40am 7
mph
1023.9mb - 43f
3:30am 4 7 mph 1024mb - 43f
3:20am 4
mph
1024.2mb - 43f
3:10am 2 4 mph 1024.2mb - 44f
3:00am 2 4 mph 1024.3mb 53f 44f
2:50am 2
mph
1024.3mb - 44f
2:40am 2 4 mph 1024.5mb - 44f
2:30am 2 4 mph 1024.7mb - 44f
2:20am 4
mph
1024.9mb - 44f
2:10am 4
mph
1025.1mb - 44f
2:00am 4
mph
1025.2mb 53f 45f
1:50am 4
mph
1025.4mb - 45f
1:40am 4
mph
1025.5mb - 45f
1:30am 4
mph
1025.7mb - 45f
1:20am 4 7 mph 1025.8mb - 45f
1:10am 4
mph
1026mb - 46f
1:00am 4
mph
1026.2mb 53f 46f
12:50am 4
mph
1026.3mb - 46f
12:40am 4
mph
1026.5mb - 46f
12:30am 4
mph
1026.6mb - 47f
12:20am 4
mph
1026.7mb - 47f
12:10am 4 7 mph 1026.8mb - 47f
12:00am 7 9 mph 1026.8mb 53f 48f
Sun 04/20 11:50pm 7 11 mph 1026.9mb - 48f
11:40pm 9 11 mph 1027mb - 49f
11:30pm 9 11 mph 1027.1mb - 49f
11:20pm 9 11 mph 1027.1mb - 49f
11:10pm 9 11 mph 1027.2mb - 49f
11:00pm 9 11 mph 1027.4mb 53f 49f
10:50pm 9 11 mph 1027.4mb - 50f
10:40pm 9 11 mph 1027.6mb - 50f
10:30pm 9 11 mph 1027.7mb - 50f
10:20pm 9 13 mph 1027.8mb - 50f
10:10pm 11 16 mph 1027.8mb - 51f
10:00pm 11 13 mph 1027.8mb 53f 51f
9:50pm 9 13 mph 1027.9mb - 51f
9:40pm 11
mph
1027.9mb - 52f
9:30pm 11 13 mph 1027.9mb - 52f
9:20pm 11 16 mph 1027.9mb - 52f
9:10pm 11 16 mph 1027.9mb - 53f
9:00pm 9 11 mph 1027.9mb 53f 53f
8:50pm 9 11 mph 1027.9mb - 53f
8:40pm 11
mph
1027.8mb - 53f
8:30pm 11 13 mph 1027.8mb - 53f
8:20pm 11 13 mph 1027.8mb - 53f
8:10pm 11 13 mph 1027.7mb - 54f
8:00pm 11 13 mph 1027.7mb 53f 54f
7:50pm 11 16 mph 1027.6mb - 54f
7:40pm 11 16 mph 1027.6mb - 55f
7:30pm 9 11 mph 1027.5mb - 56f
7:20pm 11 13 mph 1027.6mb - 56f
7:10pm 11 13 mph 1027.5mb - 56f
7:00pm 11 13 mph 1027.5mb 54f 57f
6:50pm 11 13 mph 1027.6mb - 57f
6:40pm 11 13 mph 1027.7mb - 57f
6:30pm 9 11 mph 1027.9mb - 57f
6:20pm 9 11 mph 1028mb - 57f
6:10pm 9 13 mph 1028mb - 57f
6:00pm 9 11 mph 1028.1mb 54f 57f
5:50pm 7 9 mph 1028.1mb - 57f
5:40pm 7 9 mph 1028.1mb - 57f
5:30pm 9 11 mph 1028.2mb - 57f
5:20pm 9 11 mph 1028.2mb - 57f
5:10pm 7 11 mph 1028.2mb - 57f
5:00pm 9 11 mph 1028.2mb 54f 57f
4:50pm 7 11 mph 1028.3mb - 57f
4:40pm 7 9 mph 1028.3mb - 57f
4:30pm 9 11 mph 1028.4mb - 57f
4:20pm 11 13 mph 1028.4mb - 56f
4:10pm 9 11 mph 1028.5mb - 56f
4:00pm 9 11 mph 1028.5mb 54f 56f
3:50pm 11 13 mph 1028.5mb - 56f
3:40pm 9 11 mph 1028.7mb - 56f
3:30pm 9 11 mph 1028.8mb - 56f
3:20pm 9 11 mph 1028.9mb - 55f
3:10pm 9 11 mph 1029.1mb - 55f
3:00pm 9 11 mph 1029.2mb 54f 55f
2:50pm 9 11 mph 1029.3mb - 55f
2:40pm 9 11 mph 1029.5mb - 55f
2:30pm 9 11 mph 1029.7mb - 55f
2:20pm 7 9 mph 1029.8mb - 54f
2:10pm 9 11 mph 1030mb - 54f
2:00pm 7 11 mph 1030.2mb 54f 54f
1:50pm 7 9 mph 1030.3mb - 54f
1:40pm 7 9 mph 1030.4mb - 54f
1:30pm 7
mph
1030.6mb - 53f
1:20pm 7 9 mph 1030.8mb - 53f
1:10pm 7 9 mph 1030.9mb - 53f
1:00pm 9
mph
1031mb 54f 53f
12:50pm 11 13 mph 1031mb - 53f
12:40pm 11
mph
1031.2mb - 53f
12:30pm 11 13 mph 1031.3mb - 53f
12:20pm 9 11 mph 1031.5mb - 52f
12:10pm 9 11 mph 1031.6mb - 52f
12:00pm 11 13 mph 1031.6mb 54f 52f
11:50am 13 16 mph 1031.7mb - 52f
11:40am 11 16 mph 1031.7mb - 52f
11:30am 13 18 mph 1031.7mb - 51f
11:20am 16 18 mph 1031.8mb - 51f
11:10am 13 18 mph 1031.7mb - 51f
11:00am 13 18 mph 1031.7mb 53f 51f
10:50am 13 16 mph 1031.7mb - 51f
10:40am 13 16 mph 1031.6mb - 51f
10:30am 13 18 mph 1031.6mb - 51f
10:20am 16 18 mph 1031.4mb - 51f
10:10am 16 20 mph 1031.3mb - 51f
10:00am 16 20 mph 1031.3mb 53f 50f
9:50am 18 22 mph 1031.1mb - 50f
9:40am 13 18 mph 1031mb - 50f
9:30am 18 25 mph 1030.9mb - 50f
9:20am 16 22 mph 1030.7mb - 50f
9:10am 13 20 mph 1030.5mb - 50f
9:00am 18 22 mph 1030.4mb 53f 50f
8:50am 13 20 mph 1030.4mb - 50f
8:40am 13 18 mph 1030.4mb - 50f
8:30am 13 20 mph 1030.3mb - 50f
8:20am 16 20 mph 1030.3mb - 50f
8:10am 18 25 mph 1030.1mb - 50f
8:00am 16 22 mph 1029.9mb 53f 51f
7:50am 16 25 mph 1029.8mb - 51f
7:40am 13 20 mph 1029.7mb - 51f
7:30am 11 16 mph 1029.4mb - 50f
7:20am 11 16 mph 1029.2mb - 50f
7:10am 11 18 mph 1029mb - 51f
7:00am 11 18 mph 1028.8mb 53f 51f
6:50am 11 16 mph 1028.6mb - 51f
6:40am 9 16 mph 1028.3mb - 51f
6:30am 11 16 mph 1028.3mb - 51f
6:20am 9 13 mph 1028.4mb - 51f
6:10am 9 13 mph 1028.2mb - 51f
6:00am 9 13 mph 1028mb 53f 51f
5:50am 9 13 mph 1027.8mb - 51f
5:40am 9 13 mph 1027.8mb - 51f
5:30am 11 13 mph 1027.9mb - 51f
5:20am 11 16 mph 1027.7mb - 51f
5:10am 9 11 mph 1027.6mb - 51f
5:00am 9 13 mph 1027.6mb 53f 52f
4:50am 9 11 mph 1027.5mb - 52f
4:40am 9 13 mph 1027.5mb - 51f
4:30am 9 11 mph 1027.4mb - 51f
4:20am 7 9 mph 1027.4mb - 51f
4:10am 7 9 mph 1027.3mb - 51f
4:00am 7 9 mph 1027.2mb 53f 51f
3:50am 4 7 mph 1027.3mb - 51f
3:40am 2 4 mph 1027.3mb - 51f
3:30am 2 4 mph 1027.3mb - 51f
3:20am 2 4 mph 1027.2mb - 51f
3:10am 2 4 mph 1027.2mb - 50f
3:00am 7
mph
1027.2mb 53f 50f
2:50am 7
mph
1027.1mb - 49f
2:40am 7
mph
1027.1mb - 49f
2:30am 4 7 mph 1027.1mb - 49f
2:20am 7
mph
1027.1mb - 49f
2:10am 7 9 mph 1027.1mb - 49f
2:00am 4 7 mph 1027.1mb 53f 49f
1:50am 4 7 mph 1027.2mb - 49f
1:40am 4 7 mph 1027.2mb - 49f
1:30am 4
mph
1027.3mb - 49f
1:20am 4
mph
1027.4mb - 49f
1:10am 2 4 mph 1027.5mb - 50f
1:00am 2
mph
1027.4mb 53f 50f
12:50am 2 4 mph 1027.3mb - 50f
12:40am 2 4 mph 1027.1mb - 50f
12:30am 2 4 mph 1027mb - 50f
12:20am 4
mph
1026.9mb - 51f
12:10am 4
mph
1026.9mb - 51f
12:00am 4
mph
1026.8mb 53f 51f
Sat 04/19 11:50pm 2 4 mph 1026.8mb - 51f
11:40pm 2
mph
1026.7mb - 52f
11:30pm 2
mph
1026.7mb - 53f
11:20pm 2 4 mph 1026.7mb - 53f
11:10pm 2 4 mph 1026.5mb - 53f
11:00pm 2 4 mph 1026.5mb 53f 53f
10:50pm 2 4 mph 1026.4mb - 54f
10:40pm 2 4 mph 1026.3mb - 54f
10:30pm 2 4 mph 1026.3mb - 54f
10:20pm 7 9 mph 1026.3mb - 54f
10:10pm 9 13 mph 1026.3mb - 55f
10:00pm 9 13 mph 1026.1mb 53f 55f
9:50pm 4 7 mph 1025.8mb - 55f
9:40pm 4 7 mph 1025.7mb - 55f
9:30pm 4 7 mph 1025.7mb - 55f
9:20pm 4 7 mph 1025.6mb - 56f
9:10pm 7
mph
1025.4mb - 56f
9:00pm 4 7 mph 1025.3mb 53f 56f
8:50pm 4
mph
1025.3mb - 57f
8:40pm 4 7 mph 1025.1mb - 59f
8:30pm 4
mph
1025.1mb - 62f
8:20pm 4
mph
1025mb - 62f
8:10pm 4 7 mph 1024.9mb - 62f
8:00pm 4 7 mph 1024.9mb 53f 62f
7:50pm 7 9 mph 1024.7mb - 62f
7:40pm 9 11 mph 1024.6mb - 62f
7:30pm 9 11 mph 1024.5mb - 63f
7:20pm 11 13 mph 1024.5mb - 63f
7:10pm 9 13 mph 1024.4mb - 63f
7:00pm 11 13 mph 1024.4mb 53f 64f
6:50pm 11 16 mph 1024.4mb - 64f
6:40pm 11 16 mph 1024.3mb - 64f
6:30pm 11 18 mph 1024.1mb - 64f
6:20pm 11 18 mph 1024mb - 65f
6:10pm 11 16 mph 1024mb - 65f
6:00pm 11 18 mph 1023.9mb 53f 65f
5:50pm 11 16 mph 1023.8mb - 65f
5:40pm 9 16 mph 1023.9mb - 65f
5:30pm 9 16 mph 1023.9mb - 65f
5:20pm 9 16 mph 1023.7mb - 66f
5:10pm 9 16 mph 1023.6mb - 65f
5:00pm 11 16 mph 1023.6mb 53f 65f
4:50pm 9 16 mph 1023.5mb - 65f
4:40pm 7 13 mph 1023.5mb - 65f
4:30pm 7 11 mph 1023.5mb - 65f
4:20pm 7 9 mph 1023.5mb - 65f
4:10pm 11 16 mph 1023.5mb - 64f
4:00pm 7 13 mph 1023.6mb 53f 64f
3:50pm 7 11 mph 1023.7mb - 64f
3:40pm 7 11 mph 1023.8mb - 64f
3:30pm 7 11 mph 1023.8mb - 64f
3:20pm 7 11 mph 1023.9mb - 64f
3:10pm 11 16 mph 1023.9mb - 63f
3:00pm 11 16 mph 1023.9mb 53f 62f
2:50pm 9 16 mph 1024.1mb - 63f
2:40pm 9 16 mph 1024.1mb - 62f
2:30pm 7 13 mph 1024.1mb - 63f
2:20pm 7 11 mph 1024.2mb - 62f
2:10pm 11 16 mph 1024.1mb - 62f
2:00pm 11 16 mph 1024.2mb 53f 63f
1:50pm 9 16 mph 1024.3mb - 63f
1:40pm 11 16 mph 1024.3mb - 63f
1:30pm 11 20 mph 1024.3mb - 63f
1:20pm 11 18 mph 1024.3mb - 62f
1:10pm 11 18 mph 1024.4mb - 62f
1:00pm 13 20 mph 1024.4mb 53f 62f
12:50pm 13 18 mph 1024.5mb - 61f
12:40pm 4 13 mph 1024.7mb - 57f
12:30pm 4 7 mph 1024.9mb - 56f
12:20pm 4 7 mph 1025mb - 55f
12:10pm 4 7 mph 1025.2mb - 55f
12:00pm 4 7 mph 1025.3mb 53f 54f
11:50am 7
mph
1025.5mb - 54f
11:40am 4 7 mph 1025.7mb - 53f
11:30am 7
mph
1025.9mb - 53f
11:20am 7 9 mph 1026mb - 52f
11:10am 7 9 mph 1026.1mb - 52f
11:00am 7 9 mph 1026.1mb 54f 51f
10:50am 7
mph
1026.1mb - 51f
10:40am 7
mph
1026.2mb - 51f
10:30am 4 7 mph 1026.2mb - 51f
10:20am 4 7 mph 1026.2mb - 50f
10:10am 2 4 mph 1026.3mb - 50f
10:00am 2 4 mph 1026.3mb 53f 49f
9:50am 2 4 mph 1026.2mb - 49f
9:40am 2 4 mph 1026.2mb - 48f
9:30am 4 7 mph 1026.2mb - 48f
9:20am 2 4 mph 1026.1mb - 48f
9:10am 2
mph
1026mb - 47f
9:00am 2 4 mph 1026mb 53f 47f
8:50am 2 4 mph 1025.9mb - 47f
8:40am 2
mph
1025.8mb - 47f
8:30am 2
mph
1025.7mb - 46f
8:20am 2 4 mph 1025.7mb - 46f
8:10am 2
mph
1025.7mb - 46f
8:00am  -  2 mph 1025.7mb 53f 46f
7:50am 2
mph
1025.6mb - 45f
7:40am 2
mph
1025.5mb - 45f
7:30am 2 4 mph 1025.5mb - 45f
7:20am 4
mph
1025.4mb - 44f
7:10am 4
mph
1025.3mb - 44f
7:00am 4
mph
1025.2mb 53f 44f
6:50am 2 4 mph 1025.1mb - 44f
6:40am 2 4 mph 1025mb - 44f
6:30am 2 4 mph 1024.8mb - 44f
6:20am 2 4 mph 1024.7mb - 44f
6:10am 2 4 mph 1024.5mb - 44f
6:00am 2 4 mph 1024.5mb 53f 44f
5:50am 2 4 mph 1024.4mb - 44f
5:40am 2 4 mph 1024.4mb - 44f
5:30am 2
mph
1024.3mb - 44f
5:20am 2 4 mph 1024.3mb - 44f
5:10am 2 4 mph 1024.4mb - 44f
5:00am 4
mph
1024.3mb 53f 44f
4:50am 4
mph
1024.3mb - 45f
4:40am 4
mph
1024.4mb - 45f
4:30am 4 7 mph 1024.4mb - 45f
4:20am 4 7 mph 1024.6mb - 45f
4:10am 4 7 mph 1024.5mb - 45f
4:00am 7
mph
1024.5mb 53f 45f
3:50am 7
mph
1024.5mb - 45f
3:40am 7 9 mph 1024.6mb - 46f
3:30am 4 7 mph 1024.6mb - 46f
3:20am 4
mph
1024.5mb - 46f
3:10am 4
mph
1024.5mb - 46f
3:00am 2 4 mph 1024.5mb 53f 46f
2:50am 4 7 mph 1024.5mb - 46f
2:40am 4
mph
1024.5mb - 47f
2:30am 2 4 mph 1024.5mb - 46f
2:20am 2
mph
1024.7mb - 46f
2:10am 2
mph
1024.8mb - 47f
2:00am  -  2 mph 1024.7mb 53f 47f
1:50am  -  2 mph 1024.8mb - 47f
1:40am  -  2 mph 1025mb - 47f
1:30am  -  2 mph 1025.1mb - 47f
1:20am 2
mph
1025.2mb - 46f
1:10am 2
mph
1025.2mb - 46f
1:00am 2 4 mph 1025.2mb 53f 46f
12:50am 4 7 mph 1025.1mb - 46f
12:40am 4 7 mph 1025.2mb - 47f
12:30am 2 4 mph 1025.2mb - 47f
12:20am 2
mph
1025.3mb - 47f
12:10am 2
mph
1025.3mb - 47f
12:00am 2
mph
1025.4mb 53f 47f
Fri 04/18 11:50pm 2
mph
1025.5mb - 48f
11:40pm 2 4 mph 1025.7mb - 48f
11:30pm 2 4 mph 1025.7mb - 48f
11:20pm 2 4 mph 1025.8mb - 49f
11:10pm 2
mph
1025.9mb - 49f
11:00pm 2
mph
1026.1mb 53f 49f
10:50pm 2 4 mph 1026.2mb - 49f
10:40pm 4 7 mph 1026.2mb - 49f
10:30pm 4
mph
1026.3mb - 49f
10:20pm 4
mph
1026.3mb - 49f
10:10pm 2 4 mph 1026.3mb - 49f
10:00pm 2
mph
1026.4mb 53f 49f
9:50pm 2 4 mph 1026.4mb - 50f
9:40pm 2 4 mph 1026.6mb - 50f
9:30pm 2 4 mph 1026.5mb - 50f
9:20pm 2 4 mph 1026.5mb - 50f
9:10pm 4
mph
1026.5mb - 50f
9:00pm 4 7 mph 1026.5mb 53f 50f
8:50pm 4 7 mph 1026.4mb - 50f
8:40pm  -  2 mph 1026.2mb - 50f
8:30pm 2
mph
1026mb - 50f
8:20pm 2 4 mph 1025.7mb - 50f
8:10pm 2 4 mph 1025.6mb - 50f
8:00pm  -  2 mph 1025.8mb 53f 50f
7:50pm 2
mph
1026.1mb - 50f
7:40pm  -  2 mph 1026mb - 50f
7:30pm  -  2 mph 1026mb - 50f
7:20pm  -  2 mph 1026.1mb - 50f
7:10pm  -  2 mph 1026.2mb - 50f
7:00pm  -  2 mph 1026.3mb 53f 50f
6:50pm  -  2 mph 1026.5mb - 50f
6:40pm  -  2 mph 1026.5mb - 50f
6:30pm  -  2 mph 1026.6mb - 50f
6:20pm  -  2 mph 1026.8mb - 50f
6:10pm 2
mph
1027.1mb - 51f
6:00pm 2
mph
1027.4mb 53f 51f
5:50pm  -  2 mph 1027.5mb - 52f
5:40pm  -  2 mph 1027.6mb - 51f
5:30pm  -  2 mph 1027.7mb - 51f
5:20pm 2
mph
1027.6mb - 50f
5:10pm 2
mph
1027.7mb - 49f
5:00pm 2
mph
1027.9mb 53f 49f
4:50pm 2 4 mph 1028.1mb - 49f
4:40pm 2 4 mph 1028.3mb - 49f
4:30pm 4 7 mph 1028.4mb - 49f
4:20pm 4 7 mph 1028.6mb - 48f
4:10pm 4 7 mph 1028.6mb - 48f
4:00pm 4 7 mph 1028.5mb 53f 48f
3:50pm 4 7 mph 1028.6mb - 47f
3:40pm 4 7 mph 1028.7mb - 47f
3:30pm 4 7 mph 1028.8mb - 47f
3:20pm 4 7 mph 1028.9mb - 47f
3:10pm 4 7 mph 1029.2mb - 47f
3:00pm 4 7 mph 1029.5mb 53f 46f
2:50pm 4 7 mph 1029.8mb - 46f
2:40pm 4 7 mph 1029.9mb - 46f
2:30pm 4 7 mph 1030mb - 46f
2:20pm 4 7 mph 1030.2mb - 46f
2:10pm 4 7 mph 1030.4mb - 46f
2:00pm 4 7 mph 1030.6mb 53f 45f
1:50pm 4 7 mph 1030.8mb - 45f
1:40pm 4 7 mph 1031mb - 44f
1:30pm 4 7 mph 1031.1mb - 44f
1:20pm 7 9 mph 1031.3mb - 44f
1:10pm 7 9 mph 1031.4mb - 43f
1:00pm 4 9 mph 1031.5mb 53f 43f
12:50pm 4 7 mph 1031.7mb - 43f
12:40pm 4 7 mph 1031.9mb - 43f
12:30pm 4 7 mph 1032mb - 43f
12:20pm 7 9 mph 1032.2mb - 43f
12:10pm 7 9 mph 1032.4mb - 42f
12:00pm 7 11 mph 1032.6mb 53f 42f
11:50am 7 11 mph 1032.6mb - 43f
11:40am 2 7 mph 1032.7mb - 43f
11:30am 2 4 mph 1032.5mb - 42f
11:20am 4 7 mph 1032.4mb - 42f
11:10am 4 7 mph 1032.5mb - 42f
11:00am 4 7 mph 1032.6mb 53f 42f
10:50am 2 4 mph 1032.9mb - 42f
10:40am 4 9 mph 1033mb - 42f
10:30am 4 9 mph 1033.1mb - 42f
10:20am 4 7 mph 1033.2mb - 41f
10:10am 4 7 mph 1033.2mb - 41f
10:00am 7 9 mph 1033.1mb 53f 41f
9:50am 9 11 mph 1033mb - 40f
9:40am 7 11 mph 1033.1mb - 41f
9:30am 7 9 mph 1033.2mb - 40f
9:20am 9 11 mph 1033.2mb - 40f
9:10am 7 9 mph 1033.3mb - 40f
9:00am 7 9 mph 1033.5mb 53f 40f
8:50am 7 11 mph 1033.5mb - 40f
8:40am 7 9 mph 1033.4mb - 39f
8:30am 7 11 mph 1033.4mb - 39f
8:20am 9 11 mph 1033.3mb - 39f
8:10am 7 11 mph 1033.5mb - 39f
8:00am 9 11 mph 1033.7mb 53f 39f
7:50am 7 9 mph 1033.7mb - 39f
7:40am 7 9 mph 1033.9mb - 39f
7:30am 7 9 mph 1033.8mb - 39f
7:20am 7 9 mph 1033.7mb - 39f
7:10am 7 9 mph 1033.6mb - 39f
7:00am 7 9 mph 1033.7mb 54f 39f
6:50am 7 9 mph 1033.8mb - 38f
6:40am 4 7 mph 1033.9mb - 39f
6:30am 4 7 mph 1033.8mb - 38f
6:20am 7 9 mph 1033.6mb - 38f
6:10am 7 9 mph 1033.3mb - 39f
6:00am 7 11 mph 1033.1mb 53f 39f
5:50am 7 11 mph 1033mb - 39f
5:40am 7 11 mph 1033mb - 38f
5:30am 9 11 mph 1033mb - 39f
5:20am 7 11 mph 1033.1mb - 39f
5:10am 7 11 mph 1033mb - 39f
5:00am 9 13 mph 1032.9mb 53f 39f
4:50am 11 18 mph 1032.8mb - 39f
4:40am 11 16 mph 1032.9mb - 39f
4:30am 9 13 mph 1033.1mb - 39f
4:20am 11 16 mph 1033.2mb - 39f
4:00am 11 16 mph 1033.3mb 53f 39f
3:50am 9 13 mph 1033.3mb - 39f
3:40am 11 16 mph 1033.2mb - 39f
3:30am 11 13 mph 1033.3mb - 39f
3:20am 11 13 mph 1033.6mb - 39f
3:10am 11 16 mph 1033.8mb - 39f
3:00am 11 16 mph 1034.1mb 53f 39f
2:50am 9 16 mph 1034.5mb - 39f
2:40am 11 16 mph 1034.3mb - 40f
2:30am 11 16 mph 1034.5mb - 40f
2:20am 11 18 mph 1034.6mb - 40f
2:10am 11 16 mph 1035mb - 40f
2:00am 11 13 mph 1035.3mb 53f 40f
1:50am 11 13 mph 1035.5mb - 40f
1:40am 9 11 mph 1035.8mb - 39f
1:30am 7 11 mph 1036.1mb - 40f
1:20am 11 16 mph 1036.2mb - 40f
1:10am 11 16 mph 1036.4mb - 40f
1:00am  -  mph - 54f -
12:50am 11 16 mph 1036.6mb - 40f
12:40am 9 13 mph 1036.8mb - 40f
12:30am 9 16 mph 1036.9mb - 40f
12:20am 11 13 mph 1036.6mb - 40f
12:10am 11 13 mph 1036.6mb - 41f
12:00am 13 16 mph 1036.3mb 54f 41f
Thu 04/17 11:50pm 13 16 mph 1036.3mb - 41f
11:40pm 11 16 mph 1036.3mb - 41f
11:30pm 11 16 mph 1036.4mb - 41f
11:20pm 13 18 mph 1036.2mb - 42f
11:10pm 13 16 mph 1036.2mb - 42f
11:00pm 13 16 mph 1036.1mb 54f 42f
10:50pm 13 18 mph 1036.1mb - 42f
10:40pm 16 20 mph 1036.1mb - 42f
10:30pm 16 20 mph 1036.1mb - 43f
10:20pm 13 20 mph 1036.2mb - 43f
10:10pm 16 18 mph 1036.2mb - 43f
10:00pm 13 20 mph 1036.2mb 54f 43f
9:50pm 16 20 mph 1036.2mb - 44f
9:40pm 18 22 mph 1036.2mb - 44f
9:30pm 18 22 mph 1036.2mb - 44f
9:20pm 18 22 mph 1036.1mb - 45f
9:10pm 18 25 mph 1036.1mb - 45f
9:00pm 18 22 mph 1036.1mb 55f 46f
8:50pm 18 22 mph 1036mb - 46f
8:40pm 18 22 mph 1036mb - 46f
8:30pm 18 20 mph 1036mb - 47f
8:20pm 18 20 mph 1035.9mb - 47f
8:10pm 18 22 mph 1035.8mb - 47f
8:00pm 18 22 mph 1035.8mb 55f 48f
7:50pm 16 20 mph 1035.8mb - 48f
7:40pm 16 18 mph 1035.9mb - 48f
7:30pm 16 20 mph 1036mb - 49f
7:20pm 16 18 mph 1035.9mb - 49f
7:10pm 16 20 mph 1035.8mb - 49f
7:00pm 16 20 mph 1035.8mb 55f 49f
6:50pm 13 18 mph 1036mb - 50f
6:40pm 13 18 mph 1035.9mb - 50f
6:30pm 13 18 mph 1035.8mb - 51f
6:20pm 13 16 mph 1035.8mb - 51f
6:10pm 11 16 mph 1035.8mb - 50f
6:00pm 13 18 mph 1035.8mb 55f 51f
5:50pm 13 18 mph 1035.7mb - 51f
5:40pm 13 18 mph 1035.7mb - 51f
5:30pm 11 18 mph 1035.8mb - 51f
5:20pm 11 13 mph 1035.8mb - 50f
5:10pm 11 16 mph 1035.8mb - 51f
5:00pm 11 16 mph 1035.7mb 55f 51f
4:50pm 11 16 mph 1035.7mb - 51f
4:40pm 13 18 mph 1035.8mb - 51f
4:30pm 13 16 mph 1035.8mb - 51f
4:20pm 11 16 mph 1035.9mb - 51f
4:10pm 11 13 mph 1036mb - 51f
4:00pm 9 11 mph 1036.1mb 55f 51f
3:50pm 11 13 mph 1036.2mb - 51f
3:40pm 9 13 mph 1036.5mb - 51f
3:30pm 7 11 mph 1036.7mb - 50f
3:20pm 7 11 mph 1036.8mb - 50f
3:10pm 2 7 mph 1036.9mb - 50f
3:00pm 2 7 mph 1037mb 56f 49f
2:50pm 4 7 mph 1037.2mb - 49f
2:40pm 4 7 mph 1037.3mb - 49f
2:30pm 4 7 mph 1037.4mb - 49f
2:20pm 4 7 mph 1037.5mb - 49f
2:10pm 7 9 mph 1037.6mb - 49f
2:00pm 7 9 mph 1037.6mb 55f 48f
1:50pm 7 11 mph 1037.7mb - 48f
1:40pm 7 11 mph 1037.8mb - 48f
1:30pm 9 11 mph 1038mb - 48f
1:20pm 9 11 mph 1038mb - 47f
1:10pm 9 11 mph 1038mb - 47f
1:00pm 9 13 mph 1038.1mb 55f 47f
12:50pm 9 13 mph 1038.2mb - 47f
12:40pm 9 13 mph 1038.4mb - 47f
12:30pm 9 13 mph 1038.5mb - 46f
12:20pm 9 13 mph 1038.6mb - 46f
12:10pm 11 13 mph 1038.7mb - 46f
12:00pm 11 16 mph 1038.8mb 55f 46f
11:50am 11 13 mph 1038.9mb - 46f
11:40am 11 13 mph 1039mb - 46f
11:30am 11 16 mph 1039.1mb - 46f
11:20am 11 16 mph 1039.1mb - 45f
11:10am 11 20 mph 1039.2mb - 45f
11:00am 11 16 mph 1039.1mb 55f 45f
10:50am 11 18 mph 1039.2mb - 45f
10:40am 11 16 mph 1039.1mb - 45f
10:30am 13 18 mph 1039mb - 45f